Meteo Giornale » Osservazioni meteo Italia » Palermo-Punta Raisi

ore: 06:20 - Osservazioni Meteo Palermo-Punta Raisi
Lat. 38° 11' N Lon. 13° 6' E Alt. 21 metri s.l.m.

nuvoloso Europe/Rome

12 °C

Nuvoloso

Temp. 24 Ore

10 °C

15 °C

Sud/Sud-Ovest

20.3 Km/h

Dew point 7 °C

Umidità 71 %

Visibilità  10 Km

Il sole sorge alle ore 07:13

Il sole tramonta alle ore 16:49

Data e Ora Cielo e Fenomeni T °C DP °C Um. % Pres. hPa Vis. km Vento km/h
Oggi h: 06:20 nuvoloso Nuvoloso 12 7 71 1018 10 S/SO 20.3
Oggi h: 05:50 nuvoloso Nuvoloso 11 7 76 1018 10 S 16.7
Oggi h: 05:20 nuvoloso Nuvoloso 12 8 76 1018 10 S/SO 14.8
Oggi h: 04:50 sereno Sereno 11 7 76 1018 10 S 11.1
Oggi h: 04:20 sereno Sereno 11 6 71 1018 10 S 14.8
Oggi h: 03:50 sereno Sereno 11 6 71 1018 10 S 11.1
Oggi h: 03:20 sereno Sereno 11 6 71 1018 10 S 13
Oggi h: 02:50 sereno Sereno 11 6 71 1018 10 S 11.1
Oggi h: 02:20 sereno Sereno 11 6 71 1018 10 S 9.3
Oggi h: 01:50 sereno Sereno 11 6 71 1018 10 S/SE 11.1
Oggi h: 01:20 sereno Sereno 11 6 71 1018 10 S/SE 11.1
Oggi h: 00:50 sereno Sereno 11 6 71 1018 10 S/SE 13
Oggi h: 00:20 sereno Sereno 11 6 71 1019 10 S/SE 13
Ieri h: 23:50 sereno Sereno 11 6 71 1019 10 S/SE 13
Ieri h: 23:20 sereno Sereno 11 5 66 1019 10 S/SE 13
Ieri h: 22:50 molto_nuvoloso Molto Nuvoloso 11 5 66 1019 10 S 13
Ieri h: 22:20 molto_nuvoloso Molto Nuvoloso 11 5 66 1019 10 S 11.1
Ieri h: 21:50 molto_nuvoloso Molto Nuvoloso 10 5 71 1019 10 S 13
Ieri h: 21:20 molto_nuvoloso Molto Nuvoloso 11 5 66 1019 10 S 11.1
Ieri h: 20:50 molto_nuvoloso Molto Nuvoloso 11 5 66 1018 10 S 9.3
Ieri h: 20:20 molto_nuvoloso Molto Nuvoloso 12 5 62 1018 10 S/SO 9.3
Ieri h: 19:50 molto_nuvoloso Molto Nuvoloso 12 5 62 1018 10 S 7.4
Ieri h: 19:20 molto_nuvoloso Molto Nuvoloso 12 6 66 1018 10 S 9.3
Ieri h: 18:50 molto_nuvoloso Molto Nuvoloso 12 6 66 1018 10 S 9.3
Ieri h: 18:20 molto_nuvoloso Molto Nuvoloso 12 7 71 1018 10 S 11.1
Ieri h: 17:50 molto_nuvoloso Molto Nuvoloso 12 6 66 1018 10 S 11.1
Ieri h: 17:20 molto_nuvoloso Molto Nuvoloso 13 6 62 1018 10 S 11.1
Ieri h: 16:50 molto_nuvoloso Molto Nuvoloso 13 7 66 1018 10 S 11.1
Ieri h: 16:20 nuvoloso Nuvoloso 13 7 66 1018 10 SO 14.8
Ieri h: 15:50 nuvoloso Nuvoloso 13 8 71 1018 10 O/SO 25.9
Ieri h: 15:20 nuvoloso Nuvoloso 14 10 76 1017 10 O/SO 31.5
Ieri h: 14:50 nuvoloso Nuvoloso 15 7 58 1017 10 O 22.2
Ieri h: 14:20 nuvoloso Nuvoloso 15 8 62 1017 10 O/NO 20.3
Ieri h: 13:50 poco_nuvoloso Poco Nuvoloso 15 9 67 1017 10 NO 20.3
Ieri h: 13:20 poco_nuvoloso Poco Nuvoloso 15 8 62 1017 10 O/NO 20.3
Ieri h: 12:50 poco_nuvoloso Poco Nuvoloso 15 9 67 1017 10 N/NO 20.3
Ieri h: 12:20 poco_nuvoloso Poco Nuvoloso 15 7 58 1018 10 O/NO 18.5
Ieri h: 11:50 poco_nuvoloso Poco Nuvoloso 15 8 62 1018 10 O/NO 20.3
Ieri h: 11:20 poco_nuvoloso Poco Nuvoloso 15 7 58 1018 10 O/NO 18.5
Ieri h: 10:50 poco_nuvoloso Poco Nuvoloso 15 7 58 1018 10 O/NO 20.3
Ieri h: 10:20 poco_nuvoloso Poco Nuvoloso 15 7 58 1018 10 O/NO 18.5
Ieri h: 09:50 poco_nuvoloso Poco Nuvoloso 15 7 58 1018 10 NO 20.3
Ieri h: 09:20 poco_nuvoloso Poco Nuvoloso 15 7 58 1018 10 O/NO 22.2
Ieri h: 08:50 poco_nuvoloso Poco Nuvoloso 13 8 71 1018 10 N 5.5
Ieri h: 08:20 poco_nuvoloso Poco Nuvoloso 11 6 71 1018 10 S 7.4
Ieri h: 07:50 poco_nuvoloso Poco Nuvoloso 11 6 71 1017 10 S/SE 14.8
Ieri h: 07:20 poco_nuvoloso Poco Nuvoloso 12 7 71 1017 10 S 7.4
Ieri h: 06:50 poco_nuvoloso Poco Nuvoloso 13 7 66 1017 10 N 25.9
Ieri h: 06:20 poco_nuvoloso Poco Nuvoloso 15 6 54 1017 10 N/NO 13